sensor_id;sensor_type;location;lat;lon;timestamp;temperature;humidity
41324;DHT22;27073;51.128;4.220;2022-08-05T00:01:42;24.10;98.50
41324;DHT22;27073;51.128;4.220;2022-08-05T00:04:08;24.20;98.50
41324;DHT22;27073;51.128;4.220;2022-08-05T00:06:34;24.10;98.60
41324;DHT22;27073;51.128;4.220;2022-08-05T00:09:00;24.20;98.70
41324;DHT22;27073;51.128;4.220;2022-08-05T00:11:26;24.30;98.50
41324;DHT22;27073;51.128;4.220;2022-08-05T00:13:52;24.20;98.50
41324;DHT22;27073;51.128;4.220;2022-08-05T00:16:18;24.10;98.70
41324;DHT22;27073;51.128;4.220;2022-08-05T00:18:46;24.00;98.90
41324;DHT22;27073;51.128;4.220;2022-08-05T00:21:13;24.10;98.90
41324;DHT22;27073;51.128;4.220;2022-08-05T00:23:40;24.10;99.20
41324;DHT22;27073;51.128;4.220;2022-08-05T00:26:07;23.70;99.60
41324;DHT22;27073;51.128;4.220;2022-08-05T00:28:33;23.80;99.40
41324;DHT22;27073;51.128;4.220;2022-08-05T00:30:59;23.70;99.70
41324;DHT22;27073;51.128;4.220;2022-08-05T00:33:25;23.50;99.90
41324;DHT22;27073;51.128;4.220;2022-08-05T00:35:51;23.30;99.90
41324;DHT22;27073;51.128;4.220;2022-08-05T00:38:17;23.50;99.90
41324;DHT22;27073;51.128;4.220;2022-08-05T00:40:47;23.60;99.90
41324;DHT22;27073;51.128;4.220;2022-08-05T00:43:14;23.50;99.60
41324;DHT22;27073;51.128;4.220;2022-08-05T00:45:40;23.50;99.60
41324;DHT22;27073;51.128;4.220;2022-08-05T00:48:10;23.50;99.60
41324;DHT22;27073;51.128;4.220;2022-08-05T00:50:38;23.40;99.60
41324;DHT22;27073;51.128;4.220;2022-08-05T00:53:05;23.40;99.70
41324;DHT22;27073;51.128;4.220;2022-08-05T00:55:31;23.60;99.40
41324;DHT22;27073;51.128;4.220;2022-08-05T00:57:57;23.60;99.20
41324;DHT22;27073;51.128;4.220;2022-08-05T01:00:23;23.50;98.90
41324;DHT22;27073;51.128;4.220;2022-08-05T01:02:48;23.60;99.00
41324;DHT22;27073;51.128;4.220;2022-08-05T01:05:14;23.60;99.10
41324;DHT22;27073;51.128;4.220;2022-08-05T01:07:40;23.60;98.90
41324;DHT22;27073;51.128;4.220;2022-08-05T01:10:09;23.60;99.00
41324;DHT22;27073;51.128;4.220;2022-08-05T01:12:43;23.60;98.80
41324;DHT22;27073;51.128;4.220;2022-08-05T01:15:10;23.70;98.70
41324;DHT22;27073;51.128;4.220;2022-08-05T01:17:38;23.70;98.70
41324;DHT22;27073;51.128;4.220;2022-08-05T01:29:33;23.40;99.00
41324;DHT22;27073;51.128;4.220;2022-08-05T01:32:04;23.30;99.00
41324;DHT22;27073;51.128;4.220;2022-08-05T01:34:35;23.20;99.20
41324;DHT22;27073;51.128;4.220;2022-08-05T01:37:36;23.00;99.50
41324;DHT22;27073;51.128;4.220;2022-08-05T01:40:04;22.80;99.90
41324;DHT22;27073;51.128;4.220;2022-08-05T01:42:31;22.70;99.90
41324;DHT22;27073;51.128;4.220;2022-08-05T01:44:59;22.80;99.90
41324;DHT22;27073;51.128;4.220;2022-08-05T01:47:27;22.70;99.90
41324;DHT22;27073;51.128;4.220;2022-08-05T01:49:55;22.70;99.90
41324;DHT22;27073;51.128;4.220;2022-08-05T01:52:21;22.70;99.90
41324;DHT22;27073;51.128;4.220;2022-08-05T01:54:51;22.80;99.90
41324;DHT22;27073;51.128;4.220;2022-08-05T01:57:25;22.80;99.90
41324;DHT22;27073;51.128;4.220;2022-08-05T01:59:53;22.80;99.90
41324;DHT22;27073;51.128;4.220;2022-08-05T02:02:22;22.90;99.90
41324;DHT22;27073;51.128;4.220;2022-08-05T02:04:49;22.90;99.90
41324;DHT22;27073;51.128;4.220;2022-08-05T02:07:16;22.90;99.90
41324;DHT22;27073;51.128;4.220;2022-08-05T02:09:42;23.00;99.90
41324;DHT22;27073;51.128;4.220;2022-08-05T02:14:45;22.90;99.90
41324;DHT22;27073;51.128;4.220;2022-08-05T02:17:33;22.80;99.70
41324;DHT22;27073;51.128;4.220;2022-08-05T02:20:04;22.70;99.70
41324;DHT22;27073;51.128;4.220;2022-08-05T02:22:46;22.80;99.50
41324;DHT22;27073;51.128;4.220;2022-08-05T02:25:23;22.90;99.30
41324;DHT22;27073;51.128;4.220;2022-08-05T02:27:54;22.90;99.30
41324;DHT22;27073;51.128;4.220;2022-08-05T02:30:22;22.90;99.20
41324;DHT22;27073;51.128;4.220;2022-08-05T02:32:51;23.00;99.10
41324;DHT22;27073;51.128;4.220;2022-08-05T02:35:21;23.00;98.90
41324;DHT22;27073;51.128;4.220;2022-08-05T02:37:49;23.00;98.80
41324;DHT22;27073;51.128;4.220;2022-08-05T02:40:17;23.00;98.80
41324;DHT22;27073;51.128;4.220;2022-08-05T02:42:44;23.10;98.70
41324;DHT22;27073;51.128;4.220;2022-08-05T02:45:11;23.10;98.80
41324;DHT22;27073;51.128;4.220;2022-08-05T02:47:39;23.20;98.80
41324;DHT22;27073;51.128;4.220;2022-08-05T02:50:06;23.20;98.70
41324;DHT22;27073;51.128;4.220;2022-08-05T02:52:33;23.20;98.70
41324;DHT22;27073;51.128;4.220;2022-08-05T02:55:00;23.20;98.60
41324;DHT22;27073;51.128;4.220;2022-08-05T02:57:27;23.20;98.60
41324;DHT22;27073;51.128;4.220;2022-08-05T02:59:53;23.20;98.60
41324;DHT22;27073;51.128;4.220;2022-08-05T03:02:23;23.10;98.80
41324;DHT22;27073;51.128;4.220;2022-08-05T03:04:53;23.10;98.80
41324;DHT22;27073;51.128;4.220;2022-08-05T03:07:20;23.00;99.10
41324;DHT22;27073;51.128;4.220;2022-08-05T03:09:47;22.90;99.30
41324;DHT22;27073;51.128;4.220;2022-08-05T03:12:32;22.90;99.30
41324;DHT22;27073;51.128;4.220;2022-08-05T03:14:59;22.80;99.50
41324;DHT22;27073;51.128;4.220;2022-08-05T03:17:25;22.70;99.70
41324;DHT22;27073;51.128;4.220;2022-08-05T03:19:51;22.70;99.80
41324;DHT22;27073;51.128;4.220;2022-08-05T03:22:16;22.70;99.70
41324;DHT22;27073;51.128;4.220;2022-08-05T03:24:47;22.70;99.70
41324;DHT22;27073;51.128;4.220;2022-08-05T03:27:14;22.60;99.90
41324;DHT22;27073;51.128;4.220;2022-08-05T03:29:39;22.60;99.80
41324;DHT22;27073;51.128;4.220;2022-08-05T03:32:07;22.60;99.90
41324;DHT22;27073;51.128;4.220;2022-08-05T03:34:33;22.50;99.90
41324;DHT22;27073;51.128;4.220;2022-08-05T03:37:00;22.40;99.90
41324;DHT22;27073;51.128;4.220;2022-08-05T03:39:27;22.40;99.90
41324;DHT22;27073;51.128;4.220;2022-08-05T03:41:54;22.40;99.90
41324;DHT22;27073;51.128;4.220;2022-08-05T03:44:20;22.40;99.90
41324;DHT22;27073;51.128;4.220;2022-08-05T03:46:45;22.40;99.90
41324;DHT22;27073;51.128;4.220;2022-08-05T03:49:11;22.50;99.90
41324;DHT22;27073;51.128;4.220;2022-08-05T03:52:05;22.50;99.90
41324;DHT22;27073;51.128;4.220;2022-08-05T03:54:53;22.40;99.90
41324;DHT22;27073;51.128;4.220;2022-08-05T03:57:24;22.50;99.90
41324;DHT22;27073;51.128;4.220;2022-08-05T03:59:55;22.40;99.90
41324;DHT22;27073;51.128;4.220;2022-08-05T04:02:27;22.30;99.90
41324;DHT22;27073;51.128;4.220;2022-08-05T04:04:53;22.30;99.90
41324;DHT22;27073;51.128;4.220;2022-08-05T04:07:21;22.10;99.90
41324;DHT22;27073;51.128;4.220;2022-08-05T04:09:47;22.10;99.90
41324;DHT22;27073;51.128;4.220;2022-08-05T04:12:13;22.10;99.90
41324;DHT22;27073;51.128;4.220;2022-08-05T04:14:38;22.10;99.90
41324;DHT22;27073;51.128;4.220;2022-08-05T04:17:07;22.10;99.90
41324;DHT22;27073;51.128;4.220;2022-08-05T04:19:41;22.10;99.90
41324;DHT22;27073;51.128;4.220;2022-08-05T04:22:08;22.10;99.90
41324;DHT22;27073;51.128;4.220;2022-08-05T04:24:34;22.00;99.90
41324;DHT22;27073;51.128;4.220;2022-08-05T04:27:00;22.00;99.90
41324;DHT22;27073;51.128;4.220;2022-08-05T04:29:26;22.00;99.90
41324;DHT22;27073;51.128;4.220;2022-08-05T04:31:51;21.70;99.90
41324;DHT22;27073;51.128;4.220;2022-08-05T04:34:17;21.50;99.90
41324;DHT22;27073;51.128;4.220;2022-08-05T04:36:43;21.60;99.90
41324;DHT22;27073;51.128;4.220;2022-08-05T04:39:08;21.60;99.90
41324;DHT22;27073;51.128;4.220;2022-08-05T04:41:34;21.70;99.90
41324;DHT22;27073;51.128;4.220;2022-08-05T04:44:00;21.70;99.90
41324;DHT22;27073;51.128;4.220;2022-08-05T04:46:26;21.50;99.90
41324;DHT22;27073;51.128;4.220;2022-08-05T04:48:52;21.50;99.90
41324;DHT22;27073;51.128;4.220;2022-08-05T04:51:17;21.40;99.90
41324;DHT22;27073;51.128;4.220;2022-08-05T04:53:43;21.50;99.90
41324;DHT22;27073;51.128;4.220;2022-08-05T04:56:09;21.50;99.90
41324;DHT22;27073;51.128;4.220;2022-08-05T04:58:35;21.60;99.90
41324;DHT22;27073;51.128;4.220;2022-08-05T05:01:01;21.60;99.90
41324;DHT22;27073;51.128;4.220;2022-08-05T05:03:26;21.60;99.90
41324;DHT22;27073;51.128;4.220;2022-08-05T05:05:52;21.60;99.90
41324;DHT22;27073;51.128;4.220;2022-08-05T05:08:18;21.60;99.90
41324;DHT22;27073;51.128;4.220;2022-08-05T05:10:45;21.50;99.90
41324;DHT22;27073;51.128;4.220;2022-08-05T05:13:16;21.50;99.90
41324;DHT22;27073;51.128;4.220;2022-08-05T05:15:43;21.40;99.90
41324;DHT22;27073;51.128;4.220;2022-08-05T05:18:14;21.60;99.90
41324;DHT22;27073;51.128;4.220;2022-08-05T05:20:44;21.60;99.90
41324;DHT22;27073;51.128;4.220;2022-08-05T05:23:10;21.70;99.90
41324;DHT22;27073;51.128;4.220;2022-08-05T05:25:37;21.80;99.90
41324;DHT22;27073;51.128;4.220;2022-08-05T05:28:03;21.80;99.90
41324;DHT22;27073;51.128;4.220;2022-08-05T05:30:29;21.80;99.90
41324;DHT22;27073;51.128;4.220;2022-08-05T05:32:55;21.80;99.90
41324;DHT22;27073;51.128;4.220;2022-08-05T05:35:21;21.90;99.90
41324;DHT22;27073;51.128;4.220;2022-08-05T05:37:52;21.80;99.90
41324;DHT22;27073;51.128;4.220;2022-08-05T05:40:21;21.80;99.90
41324;DHT22;27073;51.128;4.220;2022-08-05T05:42:47;21.80;99.90
41324;DHT22;27073;51.128;4.220;2022-08-05T05:45:13;21.80;99.90
41324;DHT22;27073;51.128;4.220;2022-08-05T05:47:40;21.90;99.90
41324;DHT22;27073;51.128;4.220;2022-08-05T05:50:07;21.90;99.90
41324;DHT22;27073;51.128;4.220;2022-08-05T05:52:33;21.80;99.90
41324;DHT22;27073;51.128;4.220;2022-08-05T05:55:04;21.90;99.90
41324;DHT22;27073;51.128;4.220;2022-08-05T05:57:30;22.00;99.90
41324;DHT22;27073;51.128;4.220;2022-08-05T05:59:56;22.10;99.90
41324;DHT22;27073;51.128;4.220;2022-08-05T06:02:21;21.90;99.90
41324;DHT22;27073;51.128;4.220;2022-08-05T06:04:47;21.80;99.90
41324;DHT22;27073;51.128;4.220;2022-08-05T06:07:14;21.70;99.90
41324;DHT22;27073;51.128;4.220;2022-08-05T06:09:42;21.70;99.90
41324;DHT22;27073;51.128;4.220;2022-08-05T06:12:07;21.70;99.90
41324;DHT22;27073;51.128;4.220;2022-08-05T06:14:33;21.70;99.90
41324;DHT22;27073;51.128;4.220;2022-08-05T06:16:59;21.80;99.90
41324;DHT22;27073;51.128;4.220;2022-08-05T06:19:26;21.80;99.90
41324;DHT22;27073;51.128;4.220;2022-08-05T06:21:52;22.00;99.90
41324;DHT22;27073;51.128;4.220;2022-08-05T06:24:18;21.90;99.90
41324;DHT22;27073;51.128;4.220;2022-08-05T06:26:45;21.70;99.90
41324;DHT22;27073;51.128;4.220;2022-08-05T06:29:10;21.60;99.90
41324;DHT22;27073;51.128;4.220;2022-08-05T06:31:37;21.70;99.90
41324;DHT22;27073;51.128;4.220;2022-08-05T06:34:03;21.70;99.90
41324;DHT22;27073;51.128;4.220;2022-08-05T06:36:29;21.70;99.90
41324;DHT22;27073;51.128;4.220;2022-08-05T06:38:55;21.70;99.90
41324;DHT22;27073;51.128;4.220;2022-08-05T06:41:21;21.80;99.90
41324;DHT22;27073;51.128;4.220;2022-08-05T06:43:47;21.90;99.90
41324;DHT22;27073;51.128;4.220;2022-08-05T06:46:13;22.00;99.90
41324;DHT22;27073;51.128;4.220;2022-08-05T06:48:39;21.70;99.90
41324;DHT22;27073;51.128;4.220;2022-08-05T06:51:05;21.70;99.90
41324;DHT22;27073;51.128;4.220;2022-08-05T06:53:32;21.80;99.90
41324;DHT22;27073;51.128;4.220;2022-08-05T06:55:59;21.80;99.90
41324;DHT22;27073;51.128;4.220;2022-08-05T06:58:28;21.70;99.90
41324;DHT22;27073;51.128;4.220;2022-08-05T07:00:56;21.90;99.90
41324;DHT22;27073;51.128;4.220;2022-08-05T07:03:22;22.00;99.90
41324;DHT22;27073;51.128;4.220;2022-08-05T07:05:48;22.10;99.90
41324;DHT22;27073;51.128;4.220;2022-08-05T07:08:13;22.10;99.90
41324;DHT22;27073;51.128;4.220;2022-08-05T07:10:40;22.20;99.90
41324;DHT22;27073;51.128;4.220;2022-08-05T07:13:05;22.20;99.90
41324;DHT22;27073;51.128;4.220;2022-08-05T07:15:50;21.60;99.90
41324;DHT22;27073;51.128;4.220;2022-08-05T07:18:34;21.20;99.90
41324;DHT22;27073;51.128;4.220;2022-08-05T07:21:00;21.00;99.90
41324;DHT22;27073;51.128;4.220;2022-08-05T07:23:26;21.00;99.90
41324;DHT22;27073;51.128;4.220;2022-08-05T07:25:51;20.80;99.90
41324;DHT22;27073;51.128;4.220;2022-08-05T07:28:17;20.80;99.90
41324;DHT22;27073;51.128;4.220;2022-08-05T07:30:43;20.90;99.90
41324;DHT22;27073;51.128;4.220;2022-08-05T07:33:11;20.90;99.90
41324;DHT22;27073;51.128;4.220;2022-08-05T07:35:38;21.00;99.90
41324;DHT22;27073;51.128;4.220;2022-08-05T07:38:04;21.00;99.90
41324;DHT22;27073;51.128;4.220;2022-08-05T07:40:30;21.20;99.90
41324;DHT22;27073;51.128;4.220;2022-08-05T07:42:56;21.30;99.90
41324;DHT22;27073;51.128;4.220;2022-08-05T07:45:22;21.40;99.90
41324;DHT22;27073;51.128;4.220;2022-08-05T07:47:47;21.60;99.90
41324;DHT22;27073;51.128;4.220;2022-08-05T07:50:13;21.60;99.90
41324;DHT22;27073;51.128;4.220;2022-08-05T07:52:41;21.70;99.90
41324;DHT22;27073;51.128;4.220;2022-08-05T07:55:08;21.60;99.90
41324;DHT22;27073;51.128;4.220;2022-08-05T07:57:35;21.60;99.90
41324;DHT22;27073;51.128;4.220;2022-08-05T08:00:01;21.50;99.90
41324;DHT22;27073;51.128;4.220;2022-08-05T08:02:37;21.40;99.90
41324;DHT22;27073;51.128;4.220;2022-08-05T08:05:03;21.40;99.90
41324;DHT22;27073;51.128;4.220;2022-08-05T08:07:29;21.50;99.90
41324;DHT22;27073;51.128;4.220;2022-08-05T08:09:55;21.60;99.90
41324;DHT22;27073;51.128;4.220;2022-08-05T08:12:21;21.70;99.90
41324;DHT22;27073;51.128;4.220;2022-08-05T08:14:46;21.90;99.90
41324;DHT22;27073;51.128;4.220;2022-08-05T08:17:12;21.90;99.90
41324;DHT22;27073;51.128;4.220;2022-08-05T08:19:39;22.10;99.90
41324;DHT22;27073;51.128;4.220;2022-08-05T08:22:06;22.20;99.90
41324;DHT22;27073;51.128;4.220;2022-08-05T08:24:32;22.30;99.90
41324;DHT22;27073;51.128;4.220;2022-08-05T08:26:58;22.10;99.70
41324;DHT22;27073;51.128;4.220;2022-08-05T08:29:24;22.00;99.90
41324;DHT22;27073;51.128;4.220;2022-08-05T08:31:50;21.80;99.70
41324;DHT22;27073;51.128;4.220;2022-08-05T08:34:21;21.70;99.90
41324;DHT22;27073;51.128;4.220;2022-08-05T08:36:47;21.70;99.90
41324;DHT22;27073;51.128;4.220;2022-08-05T08:39:13;21.70;99.90
41324;DHT22;27073;51.128;4.220;2022-08-05T08:41:44;21.90;99.70
41324;DHT22;27073;51.128;4.220;2022-08-05T08:44:16;22.00;99.50
41324;DHT22;27073;51.128;4.220;2022-08-05T08:46:43;22.10;98.40
41324;DHT22;27073;51.128;4.220;2022-08-05T08:49:13;22.00;98.30
41324;DHT22;27073;51.128;4.220;2022-08-05T08:51:42;21.90;97.70
41324;DHT22;27073;51.128;4.220;2022-08-05T08:54:11;21.90;98.20
41324;DHT22;27073;51.128;4.220;2022-08-05T08:56:38;21.80;98.50
41324;DHT22;27073;51.128;4.220;2022-08-05T08:59:04;22.10;98.00
41324;DHT22;27073;51.128;4.220;2022-08-05T09:01:30;22.20;97.40
41324;DHT22;27073;51.128;4.220;2022-08-05T09:03:56;22.30;97.30
41324;DHT22;27073;51.128;4.220;2022-08-05T09:06:27;22.50;97.50
41324;DHT22;27073;51.128;4.220;2022-08-05T09:08:53;22.80;97.30
41324;DHT22;27073;51.128;4.220;2022-08-05T09:11:20;23.00;97.20
41324;DHT22;27073;51.128;4.220;2022-08-05T09:13:46;22.90;96.00
41324;DHT22;27073;51.128;4.220;2022-08-05T09:16:12;22.70;96.50
41324;DHT22;27073;51.128;4.220;2022-08-05T09:18:38;22.50;96.60
41324;DHT22;27073;51.128;4.220;2022-08-05T09:21:04;22.60;96.60
41324;DHT22;27073;51.128;4.220;2022-08-05T09:23:30;22.50;96.30
41324;DHT22;27073;51.128;4.220;2022-08-05T09:26:07;22.40;96.40
41324;DHT22;27073;51.128;4.220;2022-08-05T09:28:35;22.40;96.60
41324;DHT22;27073;51.128;4.220;2022-08-05T09:31:11;22.50;96.30
41324;DHT22;27073;51.128;4.220;2022-08-05T09:34:01;22.60;95.70
41324;DHT22;27073;51.128;4.220;2022-08-05T09:36:41;22.50;94.00
41324;DHT22;27073;51.128;4.220;2022-08-05T09:39:09;22.60;94.50
41324;DHT22;27073;51.128;4.220;2022-08-05T09:41:54;22.60;94.50
41324;DHT22;27073;51.128;4.220;2022-08-05T09:47:07;22.70;94.50
41324;DHT22;27073;51.128;4.220;2022-08-05T09:49:33;23.00;95.30
41324;DHT22;27073;51.128;4.220;2022-08-05T09:52:22;23.00;94.70
41324;DHT22;27073;51.128;4.220;2022-08-05T09:55:03;23.20;94.90
41324;DHT22;27073;51.128;4.220;2022-08-05T09:57:30;23.30;94.70
41324;DHT22;27073;51.128;4.220;2022-08-05T10:00:19;23.40;94.80
41324;DHT22;27073;51.128;4.220;2022-08-05T10:02:47;23.50;95.30
41324;DHT22;27073;51.128;4.220;2022-08-05T10:05:22;23.50;95.60
41324;DHT22;27073;51.128;4.220;2022-08-05T10:10:47;23.00;96.00
41324;DHT22;27073;51.128;4.220;2022-08-05T10:13:12;22.90;96.10
41324;DHT22;27073;51.128;4.220;2022-08-05T10:15:49;22.90;96.30
41324;DHT22;27073;51.128;4.220;2022-08-05T10:18:19;23.20;95.50
41324;DHT22;27073;51.128;4.220;2022-08-05T10:21:05;23.30;95.70
41324;DHT22;27073;51.128;4.220;2022-08-05T10:23:33;23.60;94.90
41324;DHT22;27073;51.128;4.220;2022-08-05T10:26:05;23.50;94.60
41324;DHT22;27073;51.128;4.220;2022-08-05T10:28:32;23.60;94.70
41324;DHT22;27073;51.128;4.220;2022-08-05T10:30:59;23.60;94.60
41324;DHT22;27073;51.128;4.220;2022-08-05T10:33:27;23.70;94.30
41324;DHT22;27073;51.128;4.220;2022-08-05T10:35:54;23.60;94.70
41324;DHT22;27073;51.128;4.220;2022-08-05T10:38:25;23.80;95.20
41324;DHT22;27073;51.128;4.220;2022-08-05T10:41:06;23.30;95.50
41324;DHT22;27073;51.128;4.220;2022-08-05T10:46:13;22.80;96.40
41324;DHT22;27073;51.128;4.220;2022-08-05T10:48:44;22.80;96.20
41324;DHT22;27073;51.128;4.220;2022-08-05T10:51:18;22.90;96.40
41324;DHT22;27073;51.128;4.220;2022-08-05T10:56:17;23.50;96.30
41324;DHT22;27073;51.128;4.220;2022-08-05T10:58:48;23.70;95.40
41324;DHT22;27073;51.128;4.220;2022-08-05T11:01:15;23.60;94.90
41324;DHT22;27073;51.128;4.220;2022-08-05T11:09:26;23.10;94.90
41324;DHT22;27073;51.128;4.220;2022-08-05T11:11:53;23.20;95.00
41324;DHT22;27073;51.128;4.220;2022-08-05T11:14:33;23.30;94.50
41324;DHT22;27073;51.128;4.220;2022-08-05T11:17:31;23.30;94.70
41324;DHT22;27073;51.128;4.220;2022-08-05T11:19:59;23.30;94.30
41324;DHT22;27073;51.128;4.220;2022-08-05T11:22:46;23.40;93.70
41324;DHT22;27073;51.128;4.220;2022-08-05T11:25:29;23.50;93.50
41324;DHT22;27073;51.128;4.220;2022-08-05T11:33:30;23.70;92.80
41324;DHT22;27073;51.128;4.220;2022-08-05T11:36:01;24.00;92.90
41324;DHT22;27073;51.128;4.220;2022-08-05T11:41:16;23.80;91.70
41324;DHT22;27073;51.128;4.220;2022-08-05T11:43:43;23.70;91.40
41324;DHT22;27073;51.128;4.220;2022-08-05T11:46:16;23.90;91.70
41324;DHT22;27073;51.128;4.220;2022-08-05T11:48:42;24.00;92.20
41324;DHT22;27073;51.128;4.220;2022-08-05T11:51:07;24.20;92.00
41324;DHT22;27073;51.128;4.220;2022-08-05T11:53:34;24.30;90.90
41324;DHT22;27073;51.128;4.220;2022-08-05T11:56:01;24.30;91.70
41324;DHT22;27073;51.128;4.220;2022-08-05T11:58:35;24.30;90.70
41324;DHT22;27073;51.128;4.220;2022-08-05T12:01:03;23.90;90.30
41324;DHT22;27073;51.128;4.220;2022-08-05T12:03:29;24.00;90.90
41324;DHT22;27073;51.128;4.220;2022-08-05T12:06:03;23.90;90.80
41324;DHT22;27073;51.128;4.220;2022-08-05T12:08:29;24.20;91.20
41324;DHT22;27073;51.128;4.220;2022-08-05T12:10:57;24.20;90.80
41324;DHT22;27073;51.128;4.220;2022-08-05T12:13:24;24.30;91.40
41324;DHT22;27073;51.128;4.220;2022-08-05T12:15:50;24.50;90.60
41324;DHT22;27073;51.128;4.220;2022-08-05T12:18:27;24.50;90.60
41324;DHT22;27073;51.128;4.220;2022-08-05T12:21:11;24.30;90.70
41324;DHT22;27073;51.128;4.220;2022-08-05T12:23:38;24.20;91.00
41324;DHT22;27073;51.128;4.220;2022-08-05T12:26:04;24.00;91.00
41324;DHT22;27073;51.128;4.220;2022-08-05T12:28:36;23.80;91.50
41324;DHT22;27073;51.128;4.220;2022-08-05T12:31:03;23.80;92.20
41324;DHT22;27073;51.128;4.220;2022-08-05T12:33:30;24.20;92.00
41324;DHT22;27073;51.128;4.220;2022-08-05T12:35:56;24.20;90.90
41324;DHT22;27073;51.128;4.220;2022-08-05T12:38:22;24.00;91.20
41324;DHT22;27073;51.128;4.220;2022-08-05T12:40:49;24.10;91.70
41324;DHT22;27073;51.128;4.220;2022-08-05T12:43:15;24.30;91.10
41324;DHT22;27073;51.128;4.220;2022-08-05T12:45:54;24.50;91.20
41324;DHT22;27073;51.128;4.220;2022-08-05T12:48:20;24.50;90.70
41324;DHT22;27073;51.128;4.220;2022-08-05T12:51:09;24.70;90.60
41324;DHT22;27073;51.128;4.220;2022-08-05T12:53:40;24.70;90.70
41324;DHT22;27073;51.128;4.220;2022-08-05T12:56:20;24.40;90.70
41324;DHT22;27073;51.128;4.220;2022-08-05T12:59:13;24.50;90.90
41324;DHT22;27073;51.128;4.220;2022-08-05T13:01:41;24.70;90.20
41324;DHT22;27073;51.128;4.220;2022-08-05T13:04:08;24.80;89.70
41324;DHT22;27073;51.128;4.220;2022-08-05T13:06:39;25.00;90.80
41324;DHT22;27073;51.128;4.220;2022-08-05T13:09:07;25.30;90.30
41324;DHT22;27073;51.128;4.220;2022-08-05T13:11:38;25.70;90.00
41324;DHT22;27073;51.128;4.220;2022-08-05T13:14:19;25.80;90.00
41324;DHT22;27073;51.128;4.220;2022-08-05T13:16:55;25.70;90.20
41324;DHT22;27073;51.128;4.220;2022-08-05T13:19:27;25.80;90.60
41324;DHT22;27073;51.128;4.220;2022-08-05T13:21:54;26.00;89.80
41324;DHT22;27073;51.128;4.220;2022-08-05T13:24:21;26.00;90.70
41324;DHT22;27073;51.128;4.220;2022-08-05T13:26:49;26.00;87.30
41324;DHT22;27073;51.128;4.220;2022-08-05T13:29:16;25.50;89.80
41324;DHT22;27073;51.128;4.220;2022-08-05T13:31:42;25.40;88.80
41324;DHT22;27073;51.128;4.220;2022-08-05T13:34:08;25.60;89.20
41324;DHT22;27073;51.128;4.220;2022-08-05T13:36:35;25.50;87.70
41324;DHT22;27073;51.128;4.220;2022-08-05T13:39:01;25.00;88.30
41324;DHT22;27073;51.128;4.220;2022-08-05T13:41:28;24.90;88.70
41324;DHT22;27073;51.128;4.220;2022-08-05T13:43:54;24.90;87.80
41324;DHT22;27073;51.128;4.220;2022-08-05T13:46:21;24.50;88.30
41324;DHT22;27073;51.128;4.220;2022-08-05T13:48:47;24.50;88.20
41324;DHT22;27073;51.128;4.220;2022-08-05T13:51:13;24.70;88.30
41324;DHT22;27073;51.128;4.220;2022-08-05T13:53:40;24.70;88.90
41324;DHT22;27073;51.128;4.220;2022-08-05T13:56:06;24.30;88.70
41324;DHT22;27073;51.128;4.220;2022-08-05T13:58:32;24.20;89.40
41324;DHT22;27073;51.128;4.220;2022-08-05T14:00:58;24.50;89.50
41324;DHT22;27073;51.128;4.220;2022-08-05T14:03:24;24.30;88.20
41324;DHT22;27073;51.128;4.220;2022-08-05T14:05:52;24.30;88.60
41324;DHT22;27073;51.128;4.220;2022-08-05T14:08:19;24.40;88.50
41324;DHT22;27073;51.128;4.220;2022-08-05T14:10:45;24.50;85.70
41324;DHT22;27073;51.128;4.220;2022-08-05T14:13:11;24.60;85.90
41324;DHT22;27073;51.128;4.220;2022-08-05T14:15:36;25.10;85.80
41324;DHT22;27073;51.128;4.220;2022-08-05T14:18:03;25.60;87.00
41324;DHT22;27073;51.128;4.220;2022-08-05T14:20:29;26.70;85.50
41324;DHT22;27073;51.128;4.220;2022-08-05T14:22:58;28.70;84.30
41324;DHT22;27073;51.128;4.220;2022-08-05T14:25:25;29.40;81.70
41324;DHT22;27073;51.128;4.220;2022-08-05T14:27:51;29.40;81.10
41324;DHT22;27073;51.128;4.220;2022-08-05T14:30:18;28.80;82.30
41324;DHT22;27073;51.128;4.220;2022-08-05T14:32:44;28.40;81.70
41324;DHT22;27073;51.128;4.220;2022-08-05T14:35:10;28.60;81.70
41324;DHT22;27073;51.128;4.220;2022-08-05T14:37:39;29.20;80.40
41324;DHT22;27073;51.128;4.220;2022-08-05T14:40:06;29.20;80.30
41324;DHT22;27073;51.128;4.220;2022-08-05T14:42:31;28.70;80.80
41324;DHT22;27073;51.128;4.220;2022-08-05T14:44:58;28.30;81.70
41324;DHT22;27073;51.128;4.220;2022-08-05T14:47:24;27.30;82.90
41324;DHT22;27073;51.128;4.220;2022-08-05T14:49:50;27.40;81.80
41324;DHT22;27073;51.128;4.220;2022-08-05T14:52:15;26.80;83.20
41324;DHT22;27073;51.128;4.220;2022-08-05T14:54:41;27.30;81.90
41324;DHT22;27073;51.128;4.220;2022-08-05T14:57:07;28.10;81.40
41324;DHT22;27073;51.128;4.220;2022-08-05T14:59:33;28.50;81.90
41324;DHT22;27073;51.128;4.220;2022-08-05T15:01:58;30.60;80.90
41324;DHT22;27073;51.128;4.220;2022-08-05T15:04:25;30.60;79.10
41324;DHT22;27073;51.128;4.220;2022-08-05T15:06:51;30.20;79.60
41324;DHT22;27073;51.128;4.220;2022-08-05T15:09:20;31.30;80.00
41324;DHT22;27073;51.128;4.220;2022-08-05T15:11:46;30.80;76.20
41324;DHT22;27073;51.128;4.220;2022-08-05T15:14:12;29.50;76.50
41324;DHT22;27073;51.128;4.220;2022-08-05T15:16:37;29.80;77.60
41324;DHT22;27073;51.128;4.220;2022-08-05T15:19:03;30.50;79.50
41324;DHT22;27073;51.128;4.220;2022-08-05T15:21:29;30.60;78.90
41324;DHT22;27073;51.128;4.220;2022-08-05T15:23:55;32.00;78.20
41324;DHT22;27073;51.128;4.220;2022-08-05T15:26:20;32.40;77.30
41324;DHT22;27073;51.128;4.220;2022-08-05T15:28:46;31.20;77.60
41324;DHT22;27073;51.128;4.220;2022-08-05T15:31:15;30.10;79.20
41324;DHT22;27073;51.128;4.220;2022-08-05T15:33:40;28.90;78.60
41324;DHT22;27073;51.128;4.220;2022-08-05T15:36:06;28.60;79.70
41324;DHT22;27073;51.128;4.220;2022-08-05T15:38:34;28.30;81.00
41324;DHT22;27073;51.128;4.220;2022-08-05T15:41:00;27.40;81.20
41324;DHT22;27073;51.128;4.220;2022-08-05T15:43:26;26.00;84.30
41324;DHT22;27073;51.128;4.220;2022-08-05T15:45:52;25.80;85.60
41324;DHT22;27073;51.128;4.220;2022-08-05T15:48:17;26.00;86.10
41324;DHT22;27073;51.128;4.220;2022-08-05T15:50:46;26.80;84.30
41324;DHT22;27073;51.128;4.220;2022-08-05T15:53:13;28.40;83.00
41324;DHT22;27073;51.128;4.220;2022-08-05T15:55:41;28.10;81.20
41324;DHT22;27073;51.128;4.220;2022-08-05T15:58:07;26.80;82.80
41324;DHT22;27073;51.128;4.220;2022-08-05T16:00:33;26.50;84.30
41324;DHT22;27073;51.128;4.220;2022-08-05T16:02:59;27.30;82.80
41324;DHT22;27073;51.128;4.220;2022-08-05T16:05:24;28.20;82.30
41324;DHT22;27073;51.128;4.220;2022-08-05T16:07:50;28.00;82.90
41324;DHT22;27073;51.128;4.220;2022-08-05T16:10:16;28.60;81.30
41324;DHT22;27073;51.128;4.220;2022-08-05T16:12:42;28.00;81.20
41324;DHT22;27073;51.128;4.220;2022-08-05T16:15:08;27.00;82.50